createdAt,value
2023-04-13T00:06:50.338Z,24.30
2023-04-13T00:17:16.214Z,22.70
2023-04-13T00:27:45.075Z,21.10
2023-04-13T00:38:11.769Z,24.20
2023-04-13T00:48:38.198Z,18.10
2023-04-13T00:59:04.816Z,22.80
2023-04-13T01:09:37.813Z,20.50
2023-04-13T01:20:10.647Z,19.90
2023-04-13T01:30:39.044Z,21.30
2023-04-13T01:51:34.513Z,23.80
2023-04-13T02:02:00.358Z,22.20
2023-04-13T02:12:26.476Z,22.60
2023-04-13T02:22:52.163Z,24.80
2023-04-13T02:33:19.343Z,30.10
2023-04-13T02:43:45.328Z,25.50
2023-04-13T02:54:12.506Z,26.60
2023-04-13T03:04:38.479Z,27.20
2023-04-13T03:15:05.022Z,28.70
2023-04-13T03:25:33.221Z,23.50
2023-04-13T03:35:59.856Z,28.60
2023-04-13T03:46:25.627Z,22.20
2023-04-13T03:56:51.614Z,24.00
2023-04-13T04:07:17.621Z,28.20
2023-04-13T04:17:52.393Z,24.10
2023-04-13T04:28:18.503Z,21.60
2023-04-13T04:38:44.426Z,21.00
2023-04-13T04:49:10.260Z,25.60
2023-04-13T04:59:35.763Z,21.70
2023-04-13T05:10:01.832Z,26.30
2023-04-13T05:20:28.135Z,27.90
2023-04-13T05:30:54.916Z,23.60
2023-04-13T05:41:20.600Z,27.20
2023-04-13T05:51:47.959Z,27.40
2023-04-13T06:02:14.467Z,25.00
2023-04-13T06:12:41.402Z,23.50
2023-04-13T06:23:07.672Z,23.20
2023-04-13T06:33:33.964Z,22.50
2023-04-13T06:44:00.254Z,22.50
2023-04-13T06:54:26.180Z,24.00
2023-04-13T07:04:52.341Z,20.50
2023-04-13T07:15:18.251Z,18.60
2023-04-13T07:25:44.883Z,13.10
2023-04-13T07:36:12.038Z,15.80
2023-04-13T07:46:39.252Z,12.70
2023-04-13T07:57:05.692Z,14.00
2023-04-13T08:07:32.190Z,29.30
2023-04-13T08:17:58.835Z,9.60
2023-04-13T08:28:24.620Z,8.10
2023-04-13T08:38:51.173Z,9.90
2023-04-13T08:49:17.518Z,10.50
2023-04-13T08:59:45.034Z,10.90
2023-04-13T09:20:37.995Z,10.00
2023-04-13T09:31:07.918Z,8.90
2023-04-13T09:41:36.674Z,7.30
2023-04-13T09:52:02.678Z,7.60
2023-04-13T10:02:29.296Z,8.90
2023-04-13T10:12:59.938Z,7.60
2023-04-13T10:23:26.126Z,7.40
2023-04-13T10:33:52.483Z,7.00
2023-04-13T10:44:18.058Z,8.70
2023-04-13T10:54:45.622Z,6.90
2023-04-13T11:05:17.962Z,5.90
2023-04-13T11:15:43.707Z,9.80
2023-04-13T11:26:09.712Z,5.60
2023-04-13T11:36:35.530Z,5.70
2023-04-13T11:47:02.902Z,4.90
2023-04-13T11:57:29.620Z,5.90
2023-04-13T12:07:57.505Z,6.60
2023-04-13T12:18:31.043Z,5.30
2023-04-13T12:29:03.898Z,4.90
2023-04-13T12:39:29.859Z,6.30
2023-04-13T12:49:56.431Z,6.10
2023-04-13T13:00:23.772Z,6.90
2023-04-13T13:10:49.574Z,7.90
2023-04-13T13:21:15.380Z,12.00
2023-04-13T13:31:42.468Z,9.20
2023-04-13T13:42:08.917Z,8.70
2023-04-13T13:52:34.989Z,11.80
2023-04-13T14:03:01.933Z,9.80
2023-04-13T14:13:27.719Z,9.50
2023-04-13T14:23:53.258Z,14.90
2023-04-13T14:34:19.005Z,13.60
2023-04-13T14:44:44.317Z,10.20
2023-04-13T14:55:12.159Z,11.60
2023-04-13T15:05:41.810Z,10.70
2023-04-13T15:16:08.598Z,12.50
2023-04-13T15:26:38.658Z,16.00
2023-04-13T15:37:04.021Z,16.70
2023-04-13T15:47:30.311Z,14.60
2023-04-13T15:57:57.470Z,14.00
2023-04-13T16:08:23.144Z,14.00
2023-04-13T16:18:49.337Z,15.80
2023-04-13T16:29:15.336Z,15.50
2023-04-13T16:39:44.354Z,17.70
2023-04-13T16:50:12.630Z,22.40
2023-04-13T17:00:38.573Z,16.50
2023-04-13T17:23:23.906Z,19.30
2023-04-13T17:33:51.539Z,17.90
2023-04-13T17:44:19.065Z,19.50
2023-04-13T17:54:46.599Z,20.50
2023-04-13T18:05:15.850Z,20.40
2023-04-13T18:15:47.401Z,19.50
2023-04-13T18:26:15.070Z,19.70
2023-04-13T18:36:43.037Z,21.90
2023-04-13T18:57:38.993Z,27.20
2023-04-13T19:08:09.958Z,20.90
2023-04-13T19:18:37.525Z,20.20
2023-04-13T19:29:05.065Z,21.00
2023-04-13T19:39:33.729Z,21.20
2023-04-13T19:50:01.351Z,23.00
2023-04-13T20:00:29.638Z,23.20
2023-04-13T20:21:24.987Z,22.80
2023-04-13T20:31:52.782Z,22.80
2023-04-13T20:42:22.007Z,26.40
2023-04-13T20:52:50.697Z,26.50
2023-04-13T21:03:19.096Z,28.30
2023-04-13T21:24:13.097Z,34.80
2023-04-13T21:34:40.768Z,35.10
2023-04-13T21:45:09.992Z,38.80
2023-04-13T21:55:37.426Z,32.30
2023-04-13T22:06:05.259Z,32.10
2023-04-13T22:16:32.827Z,29.60
2023-04-13T22:27:02.610Z,36.60
2023-04-13T22:37:33.063Z,35.80
2023-04-13T22:48:00.591Z,39.20
2023-04-13T22:58:28.247Z,39.70
2023-04-13T23:08:57.544Z,37.60
2023-04-13T23:19:25.272Z,37.20
2023-04-13T23:29:53.149Z,35.50
2023-04-13T23:40:20.671Z,35.00
2023-04-13T23:50:48.527Z,34.60
